This is the latest recevied weather packets stored in our database for station/object K7AC-13. If no packets are shown the sender has not sent any weather packets the latest 10 day(s).
| Time | Temp. | Humidity | Pressure | Rain* | Wind** | Luminosity | Snow |
|---|---|---|---|---|---|---|---|
| 1777182347 | 23.89° C | 26% | 1008 hPa | 0 mm | - | - | - |
| 1777180551 | 24.44° C | 25% | 1008.1 hPa | 0 mm | - | - | - |
| 1777168863 | 26.67° C | 22% | 1007.4 hPa | 0 mm | - | - | - |
| 1777167949 | 27.22° C | 22% | 1007.4 hPa | 0 mm | - | - | - |
| 1777165254 | 28.33° C | 21% | 1007.5 hPa | 0 mm | - | - | - |
| 1777163443 | 28.33° C | 21% | 1007.7 hPa | 0 mm | - | - | - |
| 1777152644 | 28.89° C | 20% | 1009.6 hPa | 0 mm | - | - | - |
| 1777150853 | 27.22° C | 23% | 1010 hPa | 0 mm | - | - | - |
| 1777145474 | 26.11° C | 23% | 1010.6 hPa | 0 mm | - | - | - |
| 1777139195 | 25.56° C | 23% | 1011.3 hPa | 0 mm | - | - | - |
| 1777134662 | 25.56° C | 23% | 1010.8 hPa | 0 mm | - | - | - |
| 1777133748 | 25° C | 23% | 1010.7 hPa | 0 mm | - | - | - |
| 1777131950 | 24.44° C | 25% | 1010.8 hPa | 0 mm | - | - | - |
| 1777130149 | 23.33° C | 27% | 1010.7 hPa | 0 mm | - | - | - |
| 1777128345 | 21.67° C | 29% | 1010.8 hPa | 0 mm | - | - | - |
| 1777127447 | 20.56° C | 31% | 1010.8 hPa | 0 mm | - | - | - |
| 1777125652 | 17.22° C | 36% | 1010.5 hPa | 0 mm | - | - | - |
| 1777121176 | 15° C | 38% | 1009.4 hPa | 0 mm | - | - | - |
| 1777120252 | 15.56° C | 39% | 1009.3 hPa | 0 mm | - | - | - |
| 1777112152 | 17.22° C | 35% | 1008.8 hPa | 0 mm | - | - | - |
| 1777111254 | 17.78° C | 34% | 1008.7 hPa | 0 mm | - | - | - |
| 1777099551 | 21.67° C | 24% | 1008.6 hPa | 0 mm | - | - | - |
| 1777097767 | 23.33° C | 24% | 1008.5 hPa | 0 mm | - | - | - |
| 1777094149 | 24.44° C | 21% | 1008.7 hPa | 0 mm | - | - | - |
| 1777092353 | 25° C | 20% | 1008.8 hPa | 0 mm | - | - | - |
* Rain latest hour (hover to see other rain measurements)
** Current wind speed in m/s (hover to see current wind gust speed)